Time;durP1;ratioP1;P1;durP2;ratioP2;P2;SDS_P1;SDS_P2;PMS_P1;PMS_P2;Temp;Humidity;BMP_temperature;BMP_pressure;BME280_temperature;BME280_humidity;BME280_pressure;Samples;Min_cycle;Max_cycle;Signal;HPM_P1;HPM_P2
2023/12/08 00:02:52;;;;;;;27.13;13.43;;;;;;;;;;10407693;28;20212;-73
2023/12/08 00:07:53;;;;;;;24.60;13.93;;;;;;;;;;10407522;28;20234;-72
2023/12/08 00:12:53;;;;;;;29.67;15.63;;;;;;;;;;10407315;28;20238;-72
2023/12/08 00:17:53;;;;;;;34.63;16.50;;;;;;;;;;10406686;28;20304;-72
2023/12/08 00:22:53;;;;;;;31.20;15.67;;;;;;;;;;10406011;28;20529;-72
2023/12/08 00:27:54;;;;;;;27.63;14.27;;;;;;;;;;10407141;28;20508;-72
2023/12/08 00:32:55;;;;;;;31.67;15.90;;;;;;;;;;10406464;28;20184;-72
2023/12/08 00:37:55;;;;;;;29.27;14.87;;;;;;;;;;10406329;28;20606;-72
2023/12/08 00:42:55;;;;;;;30.83;15.32;;;;;;;;;;10406467;28;20195;-72
2023/12/08 00:47:56;;;;;;;35.30;17.03;;;;;;;;;;10405308;28;20206;-72
2023/12/08 00:52:56;;;;;;;30.30;16.50;;;;;;;;;;10402564;28;20450;-72
2023/12/08 00:57:56;;;;;;;37.23;17.23;;;;;;;;;;10406061;28;21093;-72
2023/12/08 01:02:56;;;;;;;32.60;15.55;;;;;;;;;;10404260;28;20211;-72
2023/12/08 01:07:57;;;;;;;29.23;14.53;;;;;;;;;;10406009;28;20187;-73
2023/12/08 01:12:57;;;;;;;32.53;17.75;;;;;;;;;;10405958;28;20187;-73
2023/12/08 01:17:57;;;;;;;40.17;20.73;;;;;;;;;;10405802;28;20199;-72
2023/12/08 01:22:58;;;;;;;40.45;19.05;;;;;;;;;;10405674;28;20229;-73
2023/12/08 01:27:58;;;;;;;43.03;18.37;;;;;;;;;;10405299;28;20212;-72
2023/12/08 01:32:58;;;;;;;42.83;18.97;;;;;;;;;;10402215;28;20197;-72
2023/12/08 01:37:58;;;;;;;45.33;18.73;;;;;;;;;;10412912;28;20519;-72
2023/12/08 01:42:59;;;;;;;32.87;17.13;;;;;;;;;;10413387;28;20671;-72
2023/12/08 01:47:59;;;;;;;18.60;10.32;;;;;;;;;;10412322;28;20489;-72
2023/12/08 01:52:59;;;;;;;39.20;17.27;;;;;;;;;;10412873;28;20210;-72
2023/12/08 01:58:00;;;;;;;30.57;14.97;;;;;;;;;;10410230;28;20227;-72
2023/12/08 02:03:00;;;;;;;20.80;11.80;;;;;;;;;;10411037;28;20279;-72
2023/12/08 02:08:00;;;;;;;13.37;8.63;;;;;;;;;;10412008;28;20291;-72
2023/12/08 02:13:01;;;;;;;13.43;7.97;;;;;;;;;;10410470;28;20192;-73
2023/12/08 02:18:02;;;;;;;13.30;7.47;;;;;;;;;;10412159;28;20467;-72
2023/12/08 02:23:08;;;;;;;9.80;5.80;;;;;;;;;;10399815;28;20309;-72
2023/12/08 02:28:08;;;;;;;4.17;2.57;;;;;;;;;;10398974;28;20206;-72
2023/12/08 02:33:13;;;;;;;8.50;5.03;;;;;;;;;;10406294;28;20726;-72
2023/12/08 02:38:17;;;;;;;7.20;4.33;;;;;;;;;;10396866;28;20228;-72
2023/12/08 02:43:17;;;;;;;10.97;4.73;;;;;;;;;;10410799;28;20234;-72
2023/12/08 02:48:17;;;;;;;7.23;5.07;;;;;;;;;;10409022;28;20562;-72
2023/12/08 02:53:17;;;;;;;6.97;4.33;;;;;;;;;;10410828;28;20225;-72
2023/12/08 02:58:18;;;;;;;8.17;4.53;;;;;;;;;;10410159;28;20208;-72
2023/12/08 03:03:18;;;;;;;11.77;5.27;;;;;;;;;;10410110;28;20197;-72
2023/12/08 03:08:18;;;;;;;8.63;5.67;;;;;;;;;;10409981;28;20228;-71
2023/12/08 03:13:19;;;;;;;16.07;8.03;;;;;;;;;;10408363;28;20189;-71
2023/12/08 03:18:19;;;;;;;12.03;7.37;;;;;;;;;;10409164;28;20227;-72
2023/12/08 03:23:19;;;;;;;15.10;7.90;;;;;;;;;;10407771;28;20670;-72
2023/12/08 03:28:20;;;;;;;9.47;5.30;;;;;;;;;;10408649;28;20212;-72
2023/12/08 03:33:20;;;;;;;6.70;4.10;;;;;;;;;;10408532;28;20247;-71
2023/12/08 03:38:20;;;;;;;5.40;3.57;;;;;;;;;;10406041;28;20236;-72
2023/12/08 03:43:20;;;;;;;5.30;3.33;;;;;;;;;;10408094;28;20279;-72
2023/12/08 03:48:20;;;;;;;8.13;5.33;;;;;;;;;;10408139;28;20455;-72
2023/12/08 03:53:21;;;;;;;5.87;3.80;;;;;;;;;;10405581;28;20193;-72
2023/12/08 03:58:21;;;;;;;8.80;4.73;;;;;;;;;;10407392;28;20238;-73
2023/12/08 04:03:22;;;;;;;7.23;4.30;;;;;;;;;;10406306;28;20454;-73
2023/12/08 04:08:22;;;;;;;5.87;4.33;;;;;;;;;;10407003;28;20254;-73
2023/12/08 04:13:22;;;;;;;7.57;5.07;;;;;;;;;;10407121;28;20181;-73
2023/12/08 04:18:22;;;;;;;9.00;4.80;;;;;;;;;;10407225;28;20475;-71
2023/12/08 04:23:22;;;;;;;9.43;6.30;;;;;;;;;;10406801;28;20187;-72
2023/12/08 04:28:23;;;;;;;7.60;5.23;;;;;;;;;;10405875;28;20694;-72
2023/12/08 04:33:23;;;;;;;11.43;5.37;;;;;;;;;;10406055;28;20450;-72
2023/12/08 04:38:23;;;;;;;9.97;5.90;;;;;;;;;;10405809;28;20227;-72
2023/12/08 04:43:23;;;;;;;8.87;6.07;;;;;;;;;;10406038;28;20199;-73
2023/12/08 04:48:23;;;;;;;10.07;4.53;;;;;;;;;;10405880;28;20200;-72
2023/12/08 04:53:24;;;;;;;9.48;4.95;;;;;;;;;;10387226;28;20180;-73
2023/12/08 04:58:24;;;;;;;11.23;7.70;;;;;;;;;;10405435;28;20784;-72
2023/12/08 05:03:24;;;;;;;8.93;5.53;;;;;;;;;;10405637;28;20189;-72
2023/12/08 05:08:25;;;;;;;10.32;5.90;;;;;;;;;;10407073;28;20192;-73
2023/12/08 05:13:25;;;;;;;9.20;5.30;;;;;;;;;;10413940;28;20271;-73
2023/12/08 05:18:25;;;;;;;8.23;5.17;;;;;;;;;;10409885;28;20213;-72
2023/12/08 05:23:26;;;;;;;6.87;4.03;;;;;;;;;;10413499;28;20188;-72
2023/12/08 05:28:26;;;;;;;4.73;3.50;;;;;;;;;;10413547;28;20871;-72
2023/12/08 05:33:26;;;;;;;7.93;4.47;;;;;;;;;;10412765;28;20196;-73
2023/12/08 05:38:26;;;;;;;9.33;3.57;;;;;;;;;;10413612;28;20327;-72
2023/12/08 05:43:28;;;;;;;5.17;3.03;;;;;;;;;;10412880;28;20765;-72
2023/12/08 05:48:28;;;;;;;7.07;4.33;;;;;;;;;;10412999;28;20247;-72
2023/12/08 05:53:29;;;;;;;4.10;3.17;;;;;;;;;;10412140;28;20259;-72
2023/12/08 05:58:29;;;;;;;5.70;3.47;;;;;;;;;;10408058;28;20259;-72
2023/12/08 06:03:29;;;;;;;4.17;2.93;;;;;;;;;;10406421;28;20496;-72
2023/12/08 06:08:30;;;;;;;6.33;3.97;;;;;;;;;;10404570;28;21391;-72
2023/12/08 06:13:30;;;;;;;4.63;3.57;;;;;;;;;;10405476;28;20957;-72
2023/12/08 06:18:30;;;;;;;6.83;5.03;;;;;;;;;;10405235;28;20618;-73
2023/12/08 06:23:31;;;;;;;3.93;2.87;;;;;;;;;;10402900;28;20239;-73
2023/12/08 06:28:31;;;;;;;3.97;2.90;;;;;;;;;;10387605;28;20219;-72
2023/12/08 06:33:31;;;;;;;5.30;3.17;;;;;;;;;;10399167;28;20185;-72
2023/12/08 06:38:31;;;;;;;4.33;2.90;;;;;;;;;;10405580;28;20232;-72
2023/12/08 06:43:32;;;;;;;4.43;3.33;;;;;;;;;;10408014;28;20191;-73
2023/12/08 06:48:32;;;;;;;4.40;3.20;;;;;;;;;;10410195;28;20200;-72
2023/12/08 06:53:32;;;;;;;5.87;3.80;;;;;;;;;;10409031;28;20192;-73
2023/12/08 06:58:33;;;;;;;6.90;4.20;;;;;;;;;;10406253;28;20224;-72
2023/12/08 07:03:33;;;;;;;5.68;4.10;;;;;;;;;;10409076;28;20184;-72
2023/12/08 07:08:33;;;;;;;5.00;3.70;;;;;;;;;;10409450;28;20241;-72
2023/12/08 07:13:33;;;;;;;8.20;3.73;;;;;;;;;;10391782;28;20447;-72
2023/12/08 07:18:34;;;;;;;6.30;4.82;;;;;;;;;;10408826;28;20244;-72
2023/12/08 07:23:34;;;;;;;6.60;3.87;;;;;;;;;;10408664;28;20177;-73
2023/12/08 07:28:34;;;;;;;8.23;5.27;;;;;;;;;;10408379;28;20929;-71
2023/12/08 07:33:34;;;;;;;6.17;4.27;;;;;;;;;;10403541;28;20180;-71
2023/12/08 07:38:35;;;;;;;7.97;3.90;;;;;;;;;;10407848;28;20706;-71
2023/12/08 07:43:35;;;;;;;8.47;4.43;;;;;;;;;;10407794;28;20188;-71
2023/12/08 07:48:35;;;;;;;7.80;5.00;;;;;;;;;;10402061;28;20428;-72
2023/12/08 07:53:35;;;;;;;6.63;3.70;;;;;;;;;;10404371;28;20339;-72
2023/12/08 07:58:36;;;;;;;7.30;4.37;;;;;;;;;;10404415;28;20212;-72
2023/12/08 08:03:36;;;;;;;5.80;4.30;;;;;;;;;;10403603;28;20193;-72
2023/12/08 08:08:36;;;;;;;5.90;3.83;;;;;;;;;;10400466;28;21012;-72
2023/12/08 08:13:37;;;;;;;6.67;4.50;;;;;;;;;;10403027;28;20232;-72
2023/12/08 08:18:37;;;;;;;6.88;3.42;;;;;;;;;;10404201;28;20208;-71
2023/12/08 08:23:37;;;;;;;10.13;3.83;;;;;;;;;;10404368;28;20203;-72
2023/12/08 08:28:38;;;;;;;6.00;3.15;;;;;;;;;;10400599;28;20661;-72
2023/12/08 08:33:38;;;;;;;5.27;4.03;;;;;;;;;;10403393;28;20418;-72
2023/12/08 08:38:38;;;;;;;6.43;4.23;;;;;;;;;;10404183;28;20281;-72
2023/12/08 08:43:38;;;;;;;6.57;4.67;;;;;;;;;;10403390;28;20189;-72
2023/12/08 08:48:39;;;;;;;8.20;5.00;;;;;;;;;;10403262;28;20193;-72
2023/12/08 08:53:39;;;;;;;7.47;4.50;;;;;;;;;;10403874;28;20754;-72
2023/12/08 08:58:39;;;;;;;10.17;4.20;;;;;;;;;;10403992;28;20208;-72
2023/12/08 09:03:39;;;;;;;7.93;5.13;;;;;;;;;;10404604;28;20184;-72
2023/12/08 09:08:40;;;;;;;5.22;4.13;;;;;;;;;;10404239;28;20465;-72
2023/12/08 09:13:40;;;;;;;7.97;6.30;;;;;;;;;;10403736;28;20683;-72
2023/12/08 09:18:40;;;;;;;5.70;3.90;;;;;;;;;;10403719;28;20216;-72
2023/12/08 09:23:41;;;;;;;9.23;5.83;;;;;;;;;;10403600;28;20181;-71
2023/12/08 09:28:41;;;;;;;5.30;3.87;;;;;;;;;;10404275;28;20646;-72
2023/12/08 09:33:44;;;;;;;7.63;5.50;;;;;;;;;;10403218;28;20176;-72
2023/12/08 09:38:44;;;;;;;7.53;5.27;;;;;;;;;;10403626;28;20237;-72
2023/12/08 09:43:56;;;;;;;8.20;5.20;;;;;;;;;;10402720;28;20943;-72
2023/12/08 09:48:59;;;;;;;6.83;4.83;;;;;;;;;;10402810;28;20189;-72
2023/12/08 09:53:59;;;;;;;7.10;3.43;;;;;;;;;;10403429;28;20210;-72
2023/12/08 09:59:00;;;;;;;5.77;3.53;;;;;;;;;;10411260;28;20215;-71
2023/12/08 10:04:01;;;;;;;9.30;4.67;;;;;;;;;;10410229;28;20274;-72
2023/12/08 10:09:03;;;;;;;5.20;4.03;;;;;;;;;;10407154;28;20188;-71
2023/12/08 10:14:03;;;;;;;4.23;3.10;;;;;;;;;;10410392;28;20200;-72
2023/12/08 10:19:04;;;;;;;8.77;5.70;;;;;;;;;;10410198;28;20216;-71
2023/12/08 10:24:07;;;;;;;4.03;2.90;;;;;;;;;;10409845;28;20576;-71
2023/12/08 10:29:10;;;;;;;6.53;4.07;;;;;;;;;;10392159;28;20225;-72
2023/12/08 10:34:10;;;;;;;5.40;3.67;;;;;;;;;;10409357;28;20195;-71
2023/12/08 10:39:11;;;;;;;6.90;4.87;;;;;;;;;;10404427;28;20255;-72
2023/12/08 10:44:11;;;;;;;9.27;3.80;;;;;;;;;;10410019;28;20559;-72
2023/12/08 10:49:15;;;;;;;4.80;4.10;;;;;;;;;;10408665;28;20211;-72
2023/12/08 10:54:18;;;;;;;4.40;3.27;;;;;;;;;;10408553;28;20191;-73
2023/12/08 10:59:23;;;;;;;7.87;4.40;;;;;;;;;;10404939;28;20224;-71
2023/12/08 11:04:25;;;;;;;10.37;4.60;;;;;;;;;;10407960;28;20692;-71
2023/12/08 11:09:27;;;;;;;6.47;4.50;;;;;;;;;;10405694;28;20282;-71
2023/12/08 11:14:38;;;;;;;9.80;4.40;;;;;;;;;;10407625;28;20341;-71
2023/12/08 11:19:39;;;;;;;8.30;5.10;;;;;;;;;;10403100;28;20655;-71
2023/12/08 11:24:40;;;;;;;9.47;6.37;;;;;;;;;;10404897;28;20212;-71
2023/12/08 11:29:46;;;;;;;9.53;5.47;;;;;;;;;;10405865;28;20295;-71
2023/12/08 11:34:55;;;;;;;8.07;5.07;;;;;;;;;;10405607;28;20195;-72
2023/12/08 11:39:59;;;;;;;6.93;4.17;;;;;;;;;;10404992;28;20725;-71
2023/12/08 11:44:59;;;;;;;6.63;4.47;;;;;;;;;;10404681;28;20202;-72
2023/12/08 11:50:01;;;;;;;6.80;4.80;;;;;;;;;;10405868;28;20650;-72
2023/12/08 11:55:19;;;;;;;6.47;4.73;;;;;;;;;;10405066;28;20557;-72
2023/12/08 12:00:21;;;;;;;8.40;5.10;;;;;;;;;;10403385;28;20212;-72
2023/12/08 12:05:21;;;;;;;11.53;6.50;;;;;;;;;;10405870;28;20200;-71
2023/12/08 12:10:24;;;;;;;14.10;8.20;;;;;;;;;;10405679;28;20180;-72
2023/12/08 12:15:25;;;;;;;10.13;5.00;;;;;;;;;;10401448;28;20189;-72
2023/12/08 12:20:29;;;;;;;9.50;6.37;;;;;;;;;;10370690;28;20219;-72
2023/12/08 12:25:29;;;;;;;10.40;6.53;;;;;;;;;;10405244;28;20258;-72
2023/12/08 12:30:31;;;;;;;10.40;6.03;;;;;;;;;;10404859;28;20245;-72
2023/12/08 12:35:31;;;;;;;10.60;6.03;;;;;;;;;;10404605;28;20960;-72
2023/12/08 12:40:31;;;;;;;12.03;6.47;;;;;;;;;;10403402;28;20228;-72
2023/12/08 12:45:33;;;;;;;8.90;5.97;;;;;;;;;;10403169;28;20195;-73
2023/12/08 12:56:14;;;;;;;11.77;8.03;;;;;;;;;;10399249;28;20197;-72
2023/12/08 13:01:14;;;;;;;12.30;6.90;;;;;;;;;;10402999;28;20184;-72
2023/12/08 13:06:25;;;;;;;14.03;7.10;;;;;;;;;;10397972;28;20242;-73
2023/12/08 13:11:25;;;;;;;15.77;8.23;;;;;;;;;;10403565;28;20220;-73
2023/12/08 13:16:26;;;;;;;11.53;7.67;;;;;;;;;;10406581;28;20218;-72
2023/12/08 13:21:26;;;;;;;13.30;7.30;;;;;;;;;;10407016;28;20590;-73
2023/12/08 13:26:26;;;;;;;14.03;8.30;;;;;;;;;;10402317;28;20984;-73
2023/12/08 13:31:27;;;;;;;14.97;9.03;;;;;;;;;;10403840;28;20205;-73
2023/12/08 13:36:27;;;;;;;17.73;9.43;;;;;;;;;;10403555;28;20641;-72
2023/12/08 13:41:27;;;;;;;16.30;9.13;;;;;;;;;;10407948;28;20236;-72
2023/12/08 13:46:28;;;;;;;15.43;10.03;;;;;;;;;;10409388;28;20188;-72
2023/12/08 13:51:31;;;;;;;21.87;11.93;;;;;;;;;;10409886;28;20522;-71
2023/12/08 13:56:31;;;;;;;17.40;9.13;;;;;;;;;;10410072;28;20207;-72
2023/12/08 14:01:32;;;;;;;18.57;10.77;;;;;;;;;;10407516;28;20183;-71
2023/12/08 14:06:32;;;;;;;16.88;10.23;;;;;;;;;;10407364;28;20195;-72
2023/12/08 14:11:33;;;;;;;15.90;9.57;;;;;;;;;;10407616;28;20799;-72
2023/12/08 14:16:33;;;;;;;15.90;9.23;;;;;;;;;;10405913;28;20292;-71
2023/12/08 14:21:34;;;;;;;16.10;9.57;;;;;;;;;;10406466;28;20662;-72
2023/12/08 14:26:34;;;;;;;18.83;10.33;;;;;;;;;;10405986;28;20196;-72
2023/12/08 14:31:34;;;;;;;14.07;8.53;;;;;;;;;;10407078;28;20195;-72
2023/12/08 14:36:35;;;;;;;18.97;10.43;;;;;;;;;;10409640;28;20581;-72
2023/12/08 14:41:35;;;;;;;14.73;9.23;;;;;;;;;;10418167;28;20704;-72
2023/12/08 14:46:35;;;;;;;16.87;9.80;;;;;;;;;;10412308;28;20199;-71
2023/12/08 14:51:35;;;;;;;16.60;8.30;;;;;;;;;;10410931;28;20192;-71
2023/12/08 14:56:42;;;;;;;17.07;9.97;;;;;;;;;;10410596;28;20498;-71
2023/12/08 15:01:43;;;;;;;13.43;8.00;;;;;;;;;;10404658;28;20177;-71
2023/12/08 15:06:43;;;;;;;13.70;8.23;;;;;;;;;;10404910;28;20180;-72
2023/12/08 15:11:43;;;;;;;17.63;10.27;;;;;;;;;;10403881;28;20535;-71
2023/12/08 15:16:43;;;;;;;17.93;9.30;;;;;;;;;;10405621;28;20474;-71
2023/12/08 15:21:46;;;;;;;15.57;8.70;;;;;;;;;;10405454;28;20440;-71
2023/12/08 15:26:47;;;;;;;14.10;6.60;;;;;;;;;;10400381;28;20907;-72
2023/12/08 15:31:47;;;;;;;17.30;10.33;;;;;;;;;;10386992;28;20275;-71
2023/12/08 15:36:49;;;;;;;17.87;9.97;;;;;;;;;;10405175;28;20204;-71
2023/12/08 15:41:49;;;;;;;14.10;8.70;;;;;;;;;;10405062;28;20224;-71
2023/12/08 15:46:50;;;;;;;19.67;11.90;;;;;;;;;;10405557;28;20185;-71
2023/12/08 15:51:50;;;;;;;25.10;13.37;;;;;;;;;;10403299;28;20439;-71
2023/12/08 15:56:50;;;;;;;23.30;12.90;;;;;;;;;;10404582;28;20513;-70
2023/12/08 16:01:56;;;;;;;19.20;11.93;;;;;;;;;;10404629;28;20181;-71
2023/12/08 16:06:56;;;;;;;18.27;10.23;;;;;;;;;;10405134;28;20195;-71
2023/12/08 16:11:57;;;;;;;18.93;11.40;;;;;;;;;;10404314;28;20189;-71
2023/12/08 16:16:57;;;;;;;23.70;11.93;;;;;;;;;;10404193;28;20208;-71
2023/12/08 16:21:57;;;;;;;18.63;10.57;;;;;;;;;;10408258;28;20271;-71
2023/12/08 16:26:58;;;;;;;24.10;12.33;;;;;;;;;;10403333;28;20226;-72
2023/12/08 16:31:58;;;;;;;17.47;10.23;;;;;;;;;;10397283;28;20185;-71
2023/12/08 16:36:58;;;;;;;19.53;10.10;;;;;;;;;;10402795;28;20208;-71
2023/12/08 16:41:58;;;;;;;23.83;12.20;;;;;;;;;;10402832;28;20311;-72
2023/12/08 16:46:59;;;;;;;20.90;10.83;;;;;;;;;;10404240;28;20660;-71
2023/12/08 16:51:59;;;;;;;21.77;12.23;;;;;;;;;;10402978;28;20189;-71
2023/12/08 16:56:59;;;;;;;23.80;11.60;;;;;;;;;;10403795;28;20565;-71
2023/12/08 17:02:00;;;;;;;12.27;7.07;;;;;;;;;;10412209;28;20259;-71
2023/12/08 17:07:00;;;;;;;18.10;9.33;;;;;;;;;;10418607;28;20458;-72
2023/12/08 17:12:03;;;;;;;16.13;9.50;;;;;;;;;;10399545;28;20577;-71
2023/12/08 17:17:03;;;;;;;18.27;10.07;;;;;;;;;;10400831;28;20208;-71
2023/12/08 17:22:03;;;;;;;17.45;11.10;;;;;;;;;;10415374;28;20602;-71
2023/12/08 17:27:04;;;;;;;19.40;10.67;;;;;;;;;;10419883;28;20204;-71
2023/12/08 17:32:04;;;;;;;17.23;10.53;;;;;;;;;;10419839;28;20200;-70
2023/12/08 17:37:04;;;;;;;11.50;7.10;;;;;;;;;;10418931;28;20212;-71
2023/12/08 17:42:05;;;;;;;19.45;12.38;;;;;;;;;;10419401;28;20232;-70
2023/12/08 17:47:05;;;;;;;17.80;11.17;;;;;;;;;;10418622;28;20189;-71
2023/12/08 17:52:05;;;;;;;13.97;8.77;;;;;;;;;;10419297;28;20534;-71
2023/12/08 17:57:05;;;;;;;15.70;9.80;;;;;;;;;;10413875;28;20292;-71
2023/12/08 18:02:05;;;;;;;18.47;11.37;;;;;;;;;;10418861;28;20435;-71
2023/12/08 18:07:06;;;;;;;14.37;8.67;;;;;;;;;;10418070;28;20189;-71
2023/12/08 18:12:07;;;;;;;16.87;10.27;;;;;;;;;;10415719;28;20193;-71
2023/12/08 18:17:07;;;;;;;25.37;14.83;;;;;;;;;;10421243;28;20216;-71
2023/12/08 18:22:09;;;;;;;24.47;12.13;;;;;;;;;;10426307;28;20236;-71
2023/12/08 18:27:09;;;;;;;16.93;9.57;;;;;;;;;;10425855;28;20217;-72
2023/12/08 18:32:09;;;;;;;21.67;13.07;;;;;;;;;;10425395;28;20360;-71
2023/12/08 18:37:10;;;;;;;14.07;7.93;;;;;;;;;;10425364;28;20626;-71
2023/12/08 18:42:11;;;;;;;21.03;12.43;;;;;;;;;;10424971;28;20618;-71
2023/12/08 18:47:11;;;;;;;22.10;12.73;;;;;;;;;;10424444;28;21100;-71
2023/12/08 18:52:11;;;;;;;20.70;10.37;;;;;;;;;;10425222;28;20283;-71
2023/12/08 18:57:11;;;;;;;22.33;13.47;;;;;;;;;;10420746;28;20311;-71
2023/12/08 19:02:12;;;;;;;15.85;9.70;;;;;;;;;;10424621;28;20346;-70
2023/12/08 19:07:12;;;;;;;14.90;9.10;;;;;;;;;;10423853;28;20206;-71
2023/12/08 19:12:12;;;;;;;21.83;12.10;;;;;;;;;;10424357;28;20219;-71
2023/12/08 19:17:13;;;;;;;22.60;12.80;;;;;;;;;;10422931;28;20244;-71
2023/12/08 19:22:13;;;;;;;19.27;10.30;;;;;;;;;;10424230;28;20246;-71
2023/12/08 19:27:13;;;;;;;25.80;13.70;;;;;;;;;;10422844;28;20208;-71
2023/12/08 19:32:15;;;;;;;20.10;11.83;;;;;;;;;;10423384;28;20736;-70
2023/12/08 19:37:15;;;;;;;32.37;15.90;;;;;;;;;;10423665;28;20224;-71
2023/12/08 19:42:16;;;;;;;21.20;12.23;;;;;;;;;;10423408;28;20232;-71
2023/12/08 19:47:16;;;;;;;20.53;11.73;;;;;;;;;;10422200;28;20224;-71
2023/12/08 19:52:17;;;;;;;40.10;15.80;;;;;;;;;;10423182;28;20678;-71
2023/12/08 19:57:18;;;;;;;27.83;10.97;;;;;;;;;;10421903;28;20988;-70
2023/12/08 20:02:22;;;;;;;23.17;14.37;;;;;;;;;;10422045;28;20184;-71
2023/12/08 20:07:22;;;;;;;17.23;9.43;;;;;;;;;;10411631;28;20651;-71
2023/12/08 20:12:22;;;;;;;18.17;9.80;;;;;;;;;;10402761;28;20197;-71
2023/12/08 20:17:23;;;;;;;20.33;11.77;;;;;;;;;;10398809;28;20692;-70
2023/12/08 20:22:23;;;;;;;21.83;11.20;;;;;;;;;;10394532;28;20189;-71
2023/12/08 20:27:26;;;;;;;22.38;13.00;;;;;;;;;;10393146;28;20585;-71
2023/12/08 20:32:26;;;;;;;18.30;10.57;;;;;;;;;;10399108;28;20563;-71
2023/12/08 20:37:26;;;;;;;15.47;8.57;;;;;;;;;;10399828;28;20231;-71
2023/12/08 20:42:28;;;;;;;22.23;13.10;;;;;;;;;;10401655;28;20235;-70
2023/12/08 20:47:29;;;;;;;19.43;11.13;;;;;;;;;;10401849;28;20188;-71
2023/12/08 20:52:29;;;;;;;14.43;9.60;;;;;;;;;;10401586;28;20192;-70
2023/12/08 20:57:29;;;;;;;19.87;9.00;;;;;;;;;;10401540;28;20372;-71
2023/12/08 21:02:30;;;;;;;21.67;13.67;;;;;;;;;;10402513;28;20658;-71
2023/12/08 21:07:30;;;;;;;28.90;15.30;;;;;;;;;;10402213;28;20436;-71
2023/12/08 21:12:30;;;;;;;24.03;13.77;;;;;;;;;;10401411;28;20246;-71
2023/12/08 21:17:30;;;;;;;19.63;12.03;;;;;;;;;;10401764;28;20228;-71
2023/12/08 21:22:33;;;;;;;23.30;13.48;;;;;;;;;;10401910;28;20698;-71
2023/12/08 21:27:33;;;;;;;17.43;9.73;;;;;;;;;;10401174;28;20216;-71
2023/12/08 21:32:34;;;;;;;21.40;11.57;;;;;;;;;;10401901;28;20189;-72
2023/12/08 21:37:36;;;;;;;20.80;11.00;;;;;;;;;;10401301;28;20491;-71
2023/12/08 21:42:43;;;;;;;17.47;10.43;;;;;;;;;;10397628;28;20246;-71
2023/12/08 21:47:43;;;;;;;25.57;14.30;;;;;;;;;;10401496;28;20247;-71
2023/12/08 21:52:44;;;;;;;24.77;13.10;;;;;;;;;;10406149;28;20703;-71
2023/12/08 21:57:44;;;;;;;23.10;14.30;;;;;;;;;;10401819;28;20208;-70
2023/12/08 22:02:44;;;;;;;23.93;13.87;;;;;;;;;;10409117;28;20189;-71
2023/12/08 22:07:45;;;;;;;27.97;14.73;;;;;;;;;;10408484;28;20446;-70
2023/12/08 22:12:45;;;;;;;27.37;15.80;;;;;;;;;;10408693;28;20189;-71
2023/12/08 22:17:45;;;;;;;26.37;14.70;;;;;;;;;;10408139;28;20471;-71
2023/12/08 22:22:46;;;;;;;20.20;10.43;;;;;;;;;;10408096;28;20551;-70
2023/12/08 22:27:47;;;;;;;24.27;12.07;;;;;;;;;;10408302;28;20212;-70
2023/12/08 22:32:47;;;;;;;19.93;12.00;;;;;;;;;;10407841;28;20188;-70
2023/12/08 22:37:47;;;;;;;25.77;13.97;;;;;;;;;;10407532;28;20217;-70
2023/12/08 22:42:47;;;;;;;23.67;12.67;;;;;;;;;;10407705;28;20825;-70
2023/12/08 22:47:48;;;;;;;20.27;10.87;;;;;;;;;;10407876;28;20192;-70
2023/12/08 22:52:48;;;;;;;25.37;13.90;;;;;;;;;;10406368;28;20278;-70
2023/12/08 22:57:48;;;;;;;24.83;13.90;;;;;;;;;;10406061;28;20239;-70
2023/12/08 23:02:49;;;;;;;21.27;12.80;;;;;;;;;;10405689;28;20286;-70
2023/12/08 23:07:49;;;;;;;23.53;11.90;;;;;;;;;;10406783;28;20879;-70
2023/12/08 23:12:49;;;;;;;22.23;10.93;;;;;;;;;;10406208;28;20215;-71
2023/12/08 23:17:50;;;;;;;21.77;10.97;;;;;;;;;;10406697;28;20212;-71
2023/12/08 23:22:50;;;;;;;16.43;9.30;;;;;;;;;;10405665;28;21014;-71
2023/12/08 23:27:50;;;;;;;20.77;10.30;;;;;;;;;;10405371;28;20261;-72
2023/12/08 23:32:50;;;;;;;22.97;10.03;;;;;;;;;;10405518;28;20203;-72
2023/12/08 23:37:51;;;;;;;21.87;8.83;;;;;;;;;;10405124;28;20490;-72
2023/12/08 23:42:53;;;;;;;18.03;9.47;;;;;;;;;;10405223;28;20196;-72
2023/12/08 23:47:53;;;;;;;17.87;8.77;;;;;;;;;;10405050;28;20250;-72
2023/12/08 23:52:54;;;;;;;16.10;6.70;;;;;;;;;;10403876;28;20732;-73
2023/12/08 23:57:54;;;;;;;14.23;8.07;;;;;;;;;;10404830;28;20228;-72
